sensor_id;sensor_type;location;lat;lon;timestamp;pressure;altitude;pressure_sealevel;temperature;humidity
46379;BME280;32084;42.254;22.744;2023-04-02T00:03:34;94389.75;;;4.66;82.72
46379;BME280;32084;42.254;22.744;2023-04-02T00:08:50;94386.53;;;5.37;81.90
46379;BME280;32084;42.254;22.744;2023-04-02T00:11:36;94392.31;;;5.51;81.71
46379;BME280;32084;42.254;22.744;2023-04-02T00:14:04;94388.84;;;5.22;79.36
46379;BME280;32084;42.254;22.744;2023-04-02T00:16:30;94382.31;;;5.17;80.75
46379;BME280;32084;42.254;22.744;2023-04-02T00:18:57;94388.75;;;5.04;81.05
46379;BME280;32084;42.254;22.744;2023-04-02T00:21:27;94379.56;;;5.08;80.73
46379;BME280;32084;42.254;22.744;2023-04-02T00:23:54;94374.16;;;5.00;81.55
46379;BME280;32084;42.254;22.744;2023-04-02T00:26:28;94375.69;;;5.03;82.16
46379;BME280;32084;42.254;22.744;2023-04-02T00:28:56;94376.81;;;5.28;82.05
46379;BME280;32084;42.254;22.744;2023-04-02T00:31:22;94378.75;;;4.98;81.24
46379;BME280;32084;42.254;22.744;2023-04-02T00:33:49;94380.56;;;4.98;82.30
46379;BME280;32084;42.254;22.744;2023-04-02T00:36:17;94374.56;;;5.33;81.51
46379;BME280;32084;42.254;22.744;2023-04-02T00:38:44;94385.09;;;5.43;81.65
46379;BME280;32084;42.254;22.744;2023-04-02T00:41:15;94383.28;;;5.43;81.27
46379;BME280;32084;42.254;22.744;2023-04-02T00:43:43;94379.53;;;5.18;80.59
46379;BME280;32084;42.254;22.744;2023-04-02T00:46:14;94376.31;;;5.15;81.51
46379;BME280;32084;42.254;22.744;2023-04-02T00:48:48;94373.13;;;5.11;82.01
46379;BME280;32084;42.254;22.744;2023-04-02T00:51:18;94389.44;;;5.16;82.37
46379;BME280;32084;42.254;22.744;2023-04-02T00:53:47;94392.41;;;5.03;82.65
46379;BME280;32084;42.254;22.744;2023-04-02T00:56:15;94389.84;;;4.84;82.06
46379;BME280;32084;42.254;22.744;2023-04-02T00:58:43;94390.56;;;4.76;83.20
46379;BME280;32084;42.254;22.744;2023-04-02T01:01:16;94398.13;;;5.08;82.76
46379;BME280;32084;42.254;22.744;2023-04-02T01:04:04;94395.78;;;5.23;82.28
46379;BME280;32084;42.254;22.744;2023-04-02T01:06:35;94398.94;;;5.09;81.98
46379;BME280;32084;42.254;22.744;2023-04-02T01:11:35;94405.34;;;5.06;81.86
46379;BME280;32084;42.254;22.744;2023-04-02T01:16:42;94406.47;;;5.04;81.85
46379;BME280;32084;42.254;22.744;2023-04-02T01:21:58;94409.78;;;5.16;82.36
46379;BME280;32084;42.254;22.744;2023-04-02T01:24:30;94403.88;;;4.94;81.90
46379;BME280;32084;42.254;22.744;2023-04-02T01:26:58;94406.41;;;4.86;83.15
46379;BME280;32084;42.254;22.744;2023-04-02T01:31:52;94414.16;;;5.07;82.75
46379;BME280;32084;42.254;22.744;2023-04-02T01:34:20;94409.22;;;4.84;83.06
46379;BME280;32084;42.254;22.744;2023-04-02T01:39:35;94402.91;;;4.95;83.97
46379;BME280;32084;42.254;22.744;2023-04-02T01:44:41;94393.44;;;5.20;82.85
46379;BME280;32084;42.254;22.744;2023-04-02T01:47:09;94390.91;;;5.01;83.74
46379;BME280;32084;42.254;22.744;2023-04-02T01:49:36;94387.66;;;5.07;84.11
46379;BME280;32084;42.254;22.744;2023-04-02T01:52:04;94391.22;;;5.25;83.61
46379;BME280;32084;42.254;22.744;2023-04-02T01:54:31;94394.47;;;5.37;83.17
46379;BME280;32084;42.254;22.744;2023-04-02T01:56:58;94397.53;;;5.15;84.17
46379;BME280;32084;42.254;22.744;2023-04-02T01:59:24;94402.75;;;4.97;83.44
46379;BME280;32084;42.254;22.744;2023-04-02T02:04:20;94406.16;;;4.79;83.77
46379;BME280;32084;42.254;22.744;2023-04-02T02:06:46;94411.69;;;4.96;84.10
46379;BME280;32084;42.254;22.744;2023-04-02T02:09:33;94404.06;;;5.20;83.40
46379;BME280;32084;42.254;22.744;2023-04-02T02:11:58;94407.06;;;5.35;83.46
46379;BME280;32084;42.254;22.744;2023-04-02T02:14:26;94408.28;;;5.41;82.95
46379;BME280;32084;42.254;22.744;2023-04-02T02:16:54;94413.94;;;5.46;82.41
46379;BME280;32084;42.254;22.744;2023-04-02T02:21:48;94410.13;;;5.31;82.07
46379;BME280;32084;42.254;22.744;2023-04-02T02:26:45;94409.94;;;5.14;83.21
46379;BME280;32084;42.254;22.744;2023-04-02T02:29:14;94398.97;;;4.99;83.48
46379;BME280;32084;42.254;22.744;2023-04-02T02:31:42;94404.56;;;4.96;83.82
46379;BME280;32084;42.254;22.744;2023-04-02T02:34:17;94400.44;;;5.12;83.96
46379;BME280;32084;42.254;22.744;2023-04-02T02:39:23;94398.31;;;5.25;83.21
46379;BME280;32084;42.254;22.744;2023-04-02T02:44:18;94400.69;;;4.91;84.48
46379;BME280;32084;42.254;22.744;2023-04-02T02:46:47;94402.31;;;5.01;84.63
46379;BME280;32084;42.254;22.744;2023-04-02T02:49:16;94402.75;;;4.97;84.29
46379;BME280;32084;42.254;22.744;2023-04-02T02:52:02;94396.88;;;5.03;84.42
46379;BME280;32084;42.254;22.744;2023-04-02T02:54:32;94398.34;;;5.15;84.69
46379;BME280;32084;42.254;22.744;2023-04-02T02:57:00;94399.31;;;5.24;84.08
46379;BME280;32084;42.254;22.744;2023-04-02T02:59:27;94390.91;;;5.28;82.90
46379;BME280;32084;42.254;22.744;2023-04-02T03:01:54;94402.31;;;5.29;82.67
46379;BME280;32084;42.254;22.744;2023-04-02T03:04:20;94405.09;;;5.00;83.81
46379;BME280;32084;42.254;22.744;2023-04-02T03:06:49;94391.63;;;4.83;84.47
46379;BME280;32084;42.254;22.744;2023-04-02T03:17:17;94405.66;;;5.03;84.42
46379;BME280;32084;42.254;22.744;2023-04-02T03:19:53;94405.03;;;4.82;84.85
46379;BME280;32084;42.254;22.744;2023-04-02T03:22:26;94399.13;;;4.98;85.12
46379;BME280;32084;42.254;22.744;2023-04-02T03:24:58;94403.44;;;4.99;84.17
46379;BME280;32084;42.254;22.744;2023-04-02T03:27:37;94403.97;;;5.02;84.30
46379;BME280;32084;42.254;22.744;2023-04-02T03:32:46;94405.97;;;4.91;83.53
46379;BME280;32084;42.254;22.744;2023-04-02T03:35:31;94408.38;;;4.84;84.30
46379;BME280;32084;42.254;22.744;2023-04-02T03:40:38;94403.66;;;4.68;84.59
46379;BME280;32084;42.254;22.744;2023-04-02T03:45:37;94413.16;;;4.61;85.67
46379;BME280;32084;42.254;22.744;2023-04-02T03:49:06;94412.13;;;4.81;85.12
46379;BME280;32084;42.254;22.744;2023-04-02T03:51:20;94411.91;;;5.02;84.02
46379;BME280;32084;42.254;22.744;2023-04-02T03:53:48;94411.88;;;5.12;83.70
46379;BME280;32084;42.254;22.744;2023-04-02T03:56:48;94418.47;;;5.08;83.25
46379;BME280;32084;42.254;22.744;2023-04-02T03:59:21;94413.47;;;5.05;84.34
46379;BME280;32084;42.254;22.744;2023-04-02T04:02:08;94419.66;;;4.86;83.52
46379;BME280;32084;42.254;22.744;2023-04-02T04:04:37;94418.47;;;4.51;84.24
46379;BME280;32084;42.254;22.744;2023-04-02T04:07:05;94422.97;;;4.41;85.14
46379;BME280;32084;42.254;22.744;2023-04-02T04:09:34;94418.19;;;4.54;85.77
46379;BME280;32084;42.254;22.744;2023-04-02T04:12:07;94414.75;;;4.91;84.67
46379;BME280;32084;42.254;22.744;2023-04-02T04:14:35;94417.53;;;4.99;84.30
46379;BME280;32084;42.254;22.744;2023-04-02T04:19:45;94425.16;;;4.65;84.71
46379;BME280;32084;42.254;22.744;2023-04-02T04:24:46;94425.47;;;4.42;86.76
46379;BME280;32084;42.254;22.744;2023-04-02T04:30:02;94429.50;;;5.03;85.44
46379;BME280;32084;42.254;22.744;2023-04-02T04:32:31;94427.69;;;5.04;84.00
46379;BME280;32084;42.254;22.744;2023-04-02T04:37:44;94435.94;;;5.01;83.66
46379;BME280;32084;42.254;22.744;2023-04-02T04:40:35;94439.63;;;4.80;84.67
46379;BME280;32084;42.254;22.744;2023-04-02T04:43:02;94437.34;;;4.85;84.72
46379;BME280;32084;42.254;22.744;2023-04-02T04:48:22;94438.09;;;5.15;83.69
46379;BME280;32084;42.254;22.744;2023-04-02T04:50:56;94440.84;;;5.23;83.09
46379;BME280;32084;42.254;22.744;2023-04-02T04:53:25;94451.13;;;5.36;83.07
46379;BME280;32084;42.254;22.744;2023-04-02T04:55:52;94449.28;;;5.37;83.50
46379;BME280;32084;42.254;22.744;2023-04-02T04:58:26;94444.31;;;5.34;84.62
46379;BME280;32084;42.254;22.744;2023-04-02T05:03:41;94456.50;;;5.17;84.02
46379;BME280;32084;42.254;22.744;2023-04-02T05:06:10;94457.59;;;5.24;84.12
46379;BME280;32084;42.254;22.744;2023-04-02T05:08:40;94469.25;;;5.41;84.32
46379;BME280;32084;42.254;22.744;2023-04-02T05:11:22;94467.25;;;5.53;83.50
46379;BME280;32084;42.254;22.744;2023-04-02T05:13:59;94468.56;;;5.66;83.09
46379;BME280;32084;42.254;22.744;2023-04-02T05:16:30;94466.88;;;5.38;83.67
46379;BME280;32084;42.254;22.744;2023-04-02T05:21:44;94468.06;;;5.16;85.87
46379;BME280;32084;42.254;22.744;2023-04-02T05:26:45;94467.75;;;5.84;84.03
46379;BME280;32084;42.254;22.744;2023-04-02T05:29:17;94471.63;;;6.17;82.74
46379;BME280;32084;42.254;22.744;2023-04-02T05:31:57;94474.13;;;6.55;82.18
46379;BME280;32084;42.254;22.744;2023-04-02T05:34:27;94479.22;;;6.92;81.41
46379;BME280;32084;42.254;22.744;2023-04-02T05:36:54;94468.19;;;7.05;81.77
46379;BME280;32084;42.254;22.744;2023-04-02T05:39:21;94472.94;;;7.19;80.68
46379;BME280;32084;42.254;22.744;2023-04-02T05:41:47;94480.41;;;7.50;77.97
46379;BME280;32084;42.254;22.744;2023-04-02T05:44:21;94484.75;;;7.86;75.53
46379;BME280;32084;42.254;22.744;2023-04-02T05:49:20;94478.59;;;8.52;74.12
46379;BME280;32084;42.254;22.744;2023-04-02T05:51:49;94475.75;;;8.46;72.02
46379;BME280;32084;42.254;22.744;2023-04-02T05:54:24;94478.75;;;8.43;71.66
46379;BME280;32084;42.254;22.744;2023-04-02T05:56:54;94478.06;;;8.40;72.45
46379;BME280;32084;42.254;22.744;2023-04-02T05:59:26;94482.25;;;8.43;73.60
46379;BME280;32084;42.254;22.744;2023-04-02T06:01:55;94474.94;;;8.62;73.29
46379;BME280;32084;42.254;22.744;2023-04-02T06:04:26;94478.13;;;8.73;72.62
46379;BME280;32084;42.254;22.744;2023-04-02T06:07:05;94474.63;;;8.81;72.11
46379;BME280;32084;42.254;22.744;2023-04-02T06:14:44;94473.19;;;9.51;70.56
46379;BME280;32084;42.254;22.744;2023-04-02T06:17:13;94482.97;;;9.67;70.54
46379;BME280;32084;42.254;22.744;2023-04-02T06:19:40;94482.53;;;9.94;69.77
46379;BME280;32084;42.254;22.744;2023-04-02T06:22:08;94471.50;;;9.97;70.45
46379;BME280;32084;42.254;22.744;2023-04-02T06:24:36;94486.25;;;10.25;69.62
46379;BME280;32084;42.254;22.744;2023-04-02T06:27:04;94484.22;;;10.27;68.81
46379;BME280;32084;42.254;22.744;2023-04-02T06:29:34;94488.31;;;10.46;69.01
46379;BME280;32084;42.254;22.744;2023-04-02T06:32:05;94500.72;;;10.39;70.09
46379;BME280;32084;42.254;22.744;2023-04-02T06:34:32;94493.03;;;10.35;70.47
46379;BME280;32084;42.254;22.744;2023-04-02T06:36:59;94493.59;;;10.31;69.22
46379;BME280;32084;42.254;22.744;2023-04-02T06:39:26;94494.88;;;10.66;68.17
46379;BME280;32084;42.254;22.744;2023-04-02T06:42:25;94494.75;;;11.21;65.81
46379;BME280;32084;42.254;22.744;2023-04-02T06:44:44;94504.63;;;11.73;64.57
46379;BME280;32084;42.254;22.744;2023-04-02T06:52:28;94498.88;;;12.72;60.72
46379;BME280;32084;42.254;22.744;2023-04-02T06:54:55;94502.59;;;12.71;60.50
46379;BME280;32084;42.254;22.744;2023-04-02T06:57:22;94509.56;;;13.08;60.63
46379;BME280;32084;42.254;22.744;2023-04-02T06:59:48;94499.97;;;13.21;59.53
46379;BME280;32084;42.254;22.744;2023-04-02T07:02:20;94494.84;;;13.26;58.05
46379;BME280;32084;42.254;22.744;2023-04-02T07:04:48;94505.44;;;13.56;58.39
46379;BME280;32084;42.254;22.744;2023-04-02T07:07:14;94501.00;;;13.70;57.43
46379;BME280;32084;42.254;22.744;2023-04-02T07:09:40;94506.13;;;13.93;58.51
46379;BME280;32084;42.254;22.744;2023-04-02T07:12:10;94508.09;;;14.12;56.15
46379;BME280;32084;42.254;22.744;2023-04-02T07:14:37;94511.78;;;14.53;55.71
46379;BME280;32084;42.254;22.744;2023-04-02T07:17:03;94519.00;;;15.00;52.44
46379;BME280;32084;42.254;22.744;2023-04-02T07:19:29;94521.31;;;15.17;53.23
46379;BME280;32084;42.254;22.744;2023-04-02T07:21:55;94516.31;;;15.07;54.02
46379;BME280;32084;42.254;22.744;2023-04-02T07:24:21;94527.28;;;14.99;52.83
46379;BME280;32084;42.254;22.744;2023-04-02T07:26:47;94532.53;;;15.27;51.41
46379;BME280;32084;42.254;22.744;2023-04-02T07:29:14;94528.56;;;15.36;50.91
46379;BME280;32084;42.254;22.744;2023-04-02T07:31:40;94525.72;;;15.78;51.09
46379;BME280;32084;42.254;22.744;2023-04-02T07:34:07;94525.72;;;15.85;50.24
46379;BME280;32084;42.254;22.744;2023-04-02T07:36:33;94532.91;;;16.17;47.77
46379;BME280;32084;42.254;22.744;2023-04-02T07:38:59;94534.69;;;16.57;46.45
46379;BME280;32084;42.254;22.744;2023-04-02T07:41:25;94534.25;;;16.60;46.33
46379;BME280;32084;42.254;22.744;2023-04-02T07:43:52;94525.09;;;16.68;47.16
46379;BME280;32084;42.254;22.744;2023-04-02T07:46:18;94519.50;;;16.56;49.99
46379;BME280;32084;42.254;22.744;2023-04-02T07:48:45;94526.44;;;16.38;48.59
46379;BME280;32084;42.254;22.744;2023-04-02T07:51:24;94520.66;;;16.22;50.34
46379;BME280;32084;42.254;22.744;2023-04-02T07:53:51;94524.22;;;16.22;47.45
46379;BME280;32084;42.254;22.744;2023-04-02T07:56:20;94519.03;;;16.20;49.88
46379;BME280;32084;42.254;22.744;2023-04-02T07:58:46;94521.78;;;16.66;48.45
46379;BME280;32084;42.254;22.744;2023-04-02T08:01:14;94515.69;;;17.22;48.39
46379;BME280;32084;42.254;22.744;2023-04-02T08:03:41;94525.25;;;17.25;47.12
46379;BME280;32084;42.254;22.744;2023-04-02T08:06:07;94527.22;;;17.04;48.31
46379;BME280;32084;42.254;22.744;2023-04-02T08:08:33;94532.66;;;16.97;46.13
46379;BME280;32084;42.254;22.744;2023-04-02T08:10:59;94528.59;;;17.20;45.82
46379;BME280;32084;42.254;22.744;2023-04-02T08:13:25;94524.53;;;17.93;44.75
46379;BME280;32084;42.254;22.744;2023-04-02T08:15:51;94523.84;;;18.41;45.84
46379;BME280;32084;42.254;22.744;2023-04-02T08:18:20;94520.47;;;18.83;45.37
46379;BME280;32084;42.254;22.744;2023-04-02T08:20:46;94534.84;;;18.65;43.11
46379;BME280;32084;42.254;22.744;2023-04-02T08:23:13;94524.75;;;18.90;43.80
46379;BME280;32084;42.254;22.744;2023-04-02T08:25:41;94521.13;;;18.97;42.80
46379;BME280;32084;42.254;22.744;2023-04-02T08:28:07;94520.66;;;18.63;44.77
46379;BME280;32084;42.254;22.744;2023-04-02T08:30:33;94527.16;;;18.43;41.16
46379;BME280;32084;42.254;22.744;2023-04-02T08:32:59;94532.41;;;18.57;40.98
46379;BME280;32084;42.254;22.744;2023-04-02T08:35:25;94526.03;;;18.69;41.25
46379;BME280;32084;42.254;22.744;2023-04-02T08:37:51;94519.00;;;18.99;41.61
46379;BME280;32084;42.254;22.744;2023-04-02T08:40:22;94520.94;;;19.40;39.59
46379;BME280;32084;42.254;22.744;2023-04-02T08:45:51;94519.53;;;19.49;38.95
46379;BME280;32084;42.254;22.744;2023-04-02T08:48:19;94524.13;;;19.07;38.36
46379;BME280;32084;42.254;22.744;2023-04-02T08:50:46;94517.53;;;18.66;40.00
46379;BME280;32084;42.254;22.744;2023-04-02T08:53:22;94527.00;;;18.20;39.43
46379;BME280;32084;42.254;22.744;2023-04-02T08:58:19;94507.38;;;18.61;39.18
46379;BME280;32084;42.254;22.744;2023-04-02T09:00:50;94519.03;;;18.62;38.13
46379;BME280;32084;42.254;22.744;2023-04-02T09:03:19;94509.28;;;19.09;39.58
46379;BME280;32084;42.254;22.744;2023-04-02T09:05:47;94513.91;;;19.21;38.51
46379;BME280;32084;42.254;22.744;2023-04-02T09:08:22;94512.78;;;19.40;37.45
46379;BME280;32084;42.254;22.744;2023-04-02T09:11:03;94516.94;;;18.64;37.11
46379;BME280;32084;42.254;22.744;2023-04-02T09:13:31;94504.47;;;18.44;40.17
46379;BME280;32084;42.254;22.744;2023-04-02T09:16:11;94507.38;;;19.40;38.42
46379;BME280;32084;42.254;22.744;2023-04-02T09:18:39;94515.47;;;19.28;36.40
46379;BME280;32084;42.254;22.744;2023-04-02T09:23:53;94495.09;;;18.59;37.43
46379;BME280;32084;42.254;22.744;2023-04-02T09:26:20;94498.41;;;18.05;37.69
46379;BME280;32084;42.254;22.744;2023-04-02T09:28:48;94495.66;;;17.87;35.57
46379;BME280;32084;42.254;22.744;2023-04-02T09:31:17;94490.22;;;18.30;37.23
46379;BME280;32084;42.254;22.744;2023-04-02T09:33:48;94486.94;;;18.84;36.45
46379;BME280;32084;42.254;22.744;2023-04-02T09:45:18;94480.09;;;19.23;35.57
46379;BME280;32084;42.254;22.744;2023-04-02T09:47:45;94467.25;;;19.07;36.46
46379;BME280;32084;42.254;22.744;2023-04-02T09:50:12;94454.16;;;19.16;37.71
46379;BME280;32084;42.254;22.744;2023-04-02T09:52:38;94455.91;;;19.52;37.62
46379;BME280;32084;42.254;22.744;2023-04-02T09:55:26;94462.09;;;19.95;36.36
46379;BME280;32084;42.254;22.744;2023-04-02T09:58:05;94454.28;;;19.75;35.13
46379;BME280;32084;42.254;22.744;2023-04-02T10:00:32;94461.97;;;20.01;37.03
46379;BME280;32084;42.254;22.744;2023-04-02T10:03:00;94447.06;;;19.45;38.05
46379;BME280;32084;42.254;22.744;2023-04-02T10:05:27;94442.44;;;18.91;37.67
46379;BME280;32084;42.254;22.744;2023-04-02T10:07:56;94448.22;;;18.46;37.95
46379;BME280;32084;42.254;22.744;2023-04-02T10:10:32;94444.00;;;17.95;37.55
46379;BME280;32084;42.254;22.744;2023-04-02T10:13:02;94431.63;;;17.81;38.66
46379;BME280;32084;42.254;22.744;2023-04-02T10:15:37;94430.63;;;18.19;39.10
46379;BME280;32084;42.254;22.744;2023-04-02T10:18:52;94433.84;;;18.76;37.51
46379;BME280;32084;42.254;22.744;2023-04-02T10:20:51;94440.31;;;19.36;37.88
46379;BME280;32084;42.254;22.744;2023-04-02T10:23:18;94444.38;;;19.03;37.32
46379;BME280;32084;42.254;22.744;2023-04-02T10:25:50;94443.81;;;19.13;37.39
46379;BME280;32084;42.254;22.744;2023-04-02T10:31:08;94439.81;;;18.66;37.75
46379;BME280;32084;42.254;22.744;2023-04-02T10:33:38;94438.31;;;18.40;38.77
46379;BME280;32084;42.254;22.744;2023-04-02T10:36:10;94441.13;;;18.45;38.54
46379;BME280;32084;42.254;22.744;2023-04-02T10:41:48;94448.47;;;19.36;35.60
46379;BME280;32084;42.254;22.744;2023-04-02T10:44:24;94444.00;;;19.53;34.91
46379;BME280;32084;42.254;22.744;2023-04-02T10:49:49;94427.22;;;19.21;35.10
46379;BME280;32084;42.254;22.744;2023-04-02T10:52:19;94424.91;;;18.76;35.90
46379;BME280;32084;42.254;22.744;2023-04-02T10:54:52;94431.81;;;18.41;35.70
46379;BME280;32084;42.254;22.744;2023-04-02T10:57:21;94422.97;;;17.97;37.25
46379;BME280;32084;42.254;22.744;2023-04-02T10:59:56;94425.09;;;17.95;35.95
46379;BME280;32084;42.254;22.744;2023-04-02T11:02:33;94424.50;;;18.60;36.19
46379;BME280;32084;42.254;22.744;2023-04-02T11:05:03;94416.66;;;19.01;36.14
46379;BME280;32084;42.254;22.744;2023-04-02T11:07:33;94417.09;;;19.16;33.64
46379;BME280;32084;42.254;22.744;2023-04-02T11:10:03;94407.06;;;19.28;35.90
46379;BME280;32084;42.254;22.744;2023-04-02T11:12:39;94411.38;;;19.72;35.23
46379;BME280;32084;42.254;22.744;2023-04-02T11:15:13;94414.69;;;20.09;34.72
46379;BME280;32084;42.254;22.744;2023-04-02T11:17:42;94420.59;;;19.94;33.22
46379;BME280;32084;42.254;22.744;2023-04-02T11:23:08;94414.13;;;19.18;35.06
46379;BME280;32084;42.254;22.744;2023-04-02T11:25:35;94406.97;;;18.81;34.72
46379;BME280;32084;42.254;22.744;2023-04-02T11:28:11;94407.88;;;18.57;35.23
46379;BME280;32084;42.254;22.744;2023-04-02T11:30:38;94413.44;;;18.62;34.44
46379;BME280;32084;42.254;22.744;2023-04-02T11:35:48;94410.94;;;18.11;35.25
46379;BME280;32084;42.254;22.744;2023-04-02T11:45:57;94387.50;;;18.05;35.90
46379;BME280;32084;42.254;22.744;2023-04-02T11:48:25;94386.69;;;18.23;34.94
46379;BME280;32084;42.254;22.744;2023-04-02T11:50:51;94383.88;;;18.30;35.88
46379;BME280;32084;42.254;22.744;2023-04-02T11:53:21;94383.50;;;18.26;35.95
46379;BME280;32084;42.254;22.744;2023-04-02T12:00:59;94377.78;;;17.79;36.31
46379;BME280;32084;42.254;22.744;2023-04-02T12:04:13;94380.41;;;17.67;35.84
46379;BME280;32084;42.254;22.744;2023-04-02T12:11:33;94376.69;;;18.05;36.29
46379;BME280;32084;42.254;22.744;2023-04-02T12:14:02;94373.81;;;18.37;35.58
46379;BME280;32084;42.254;22.744;2023-04-02T12:16:32;94381.56;;;18.33;35.32
46379;BME280;32084;42.254;22.744;2023-04-02T12:18:59;94369.25;;;18.49;35.68
46379;BME280;32084;42.254;22.744;2023-04-02T12:21:26;94365.41;;;18.57;36.04
46379;BME280;32084;42.254;22.744;2023-04-02T12:23:56;94372.28;;;18.41;35.57
46379;BME280;32084;42.254;22.744;2023-04-02T12:26:25;94367.97;;;18.22;35.40
46379;BME280;32084;42.254;22.744;2023-04-02T12:28:51;94372.03;;;18.12;34.90
46379;BME280;32084;42.254;22.744;2023-04-02T12:31:18;94366.53;;;18.19;35.85
46379;BME280;32084;42.254;22.744;2023-04-02T12:33:45;94359.91;;;18.33;35.95
46379;BME280;32084;42.254;22.744;2023-04-02T12:38:43;94351.63;;;18.59;36.18
46379;BME280;32084;42.254;22.744;2023-04-02T12:41:31;94354.72;;;18.62;36.89
46379;BME280;32084;42.254;22.744;2023-04-02T12:44:00;94350.38;;;18.61;36.48
46379;BME280;32084;42.254;22.744;2023-04-02T12:46:27;94357.53;;;18.56;35.59
46379;BME280;32084;42.254;22.744;2023-04-02T12:49:02;94356.00;;;18.60;36.37
46379;BME280;32084;42.254;22.744;2023-04-02T12:51:29;94367.03;;;18.46;36.53
46379;BME280;32084;42.254;22.744;2023-04-02T12:53:55;94357.31;;;18.27;36.71
46379;BME280;32084;42.254;22.744;2023-04-02T12:56:22;94358.34;;;17.89;36.71
46379;BME280;32084;42.254;22.744;2023-04-02T12:58:55;94357.97;;;17.67;37.75
46379;BME280;32084;42.254;22.744;2023-04-02T13:01:22;94365.38;;;17.71;38.31
46379;BME280;32084;42.254;22.744;2023-04-02T13:06:24;94364.91;;;18.00;37.77
46379;BME280;32084;42.254;22.744;2023-04-02T13:08:54;94371.81;;;17.95;36.93
46379;BME280;32084;42.254;22.744;2023-04-02T13:11:21;94371.28;;;17.87;36.29
46379;BME280;32084;42.254;22.744;2023-04-02T13:13:48;94369.81;;;17.91;36.76
46379;BME280;32084;42.254;22.744;2023-04-02T13:18:44;94366.25;;;17.72;36.53
46379;BME280;32084;42.254;22.744;2023-04-02T13:23:39;94373.28;;;17.73;35.48
46379;BME280;32084;42.254;22.744;2023-04-02T13:26:16;94374.03;;;17.80;36.10
46379;BME280;32084;42.254;22.744;2023-04-02T13:28:53;94370.25;;;18.06;36.29
46379;BME280;32084;42.254;22.744;2023-04-02T13:31:20;94377.84;;;18.46;36.09
46379;BME280;32084;42.254;22.744;2023-04-02T13:33:46;94373.66;;;18.62;35.50
46379;BME280;32084;42.254;22.744;2023-04-02T13:36:13;94364.53;;;18.75;34.80
46379;BME280;32084;42.254;22.744;2023-04-02T13:38:39;94367.25;;;18.45;33.56
46379;BME280;32084;42.254;22.744;2023-04-02T13:41:09;94365.31;;;18.33;35.24
46379;BME280;32084;42.254;22.744;2023-04-02T13:43:42;94355.00;;;18.12;34.73
46379;BME280;32084;42.254;22.744;2023-04-02T13:46:08;94361.75;;;18.21;35.04
46379;BME280;32084;42.254;22.744;2023-04-02T13:48:42;94367.53;;;18.06;34.19
46379;BME280;32084;42.254;22.744;2023-04-02T13:51:09;94356.28;;;17.91;34.22
46379;BME280;32084;42.254;22.744;2023-04-02T13:53:39;94370.06;;;17.64;32.74
46379;BME280;32084;42.254;22.744;2023-04-02T13:56:05;94371.00;;;17.70;34.48
46379;BME280;32084;42.254;22.744;2023-04-02T13:58:33;94365.13;;;17.80;34.28
46379;BME280;32084;42.254;22.744;2023-04-02T14:00:59;94369.66;;;17.79;34.17
46379;BME280;32084;42.254;22.744;2023-04-02T14:03:25;94366.75;;;17.81;33.58
46379;BME280;32084;42.254;22.744;2023-04-02T14:08:45;94366.63;;;17.94;33.53
46379;BME280;32084;42.254;22.744;2023-04-02T14:35:17;94354.56;;;17.71;31.34
46379;BME280;32084;42.254;22.744;2023-04-02T14:47:59;94348.84;;;17.86;32.41
46379;BME280;32084;42.254;22.744;2023-04-02T14:50:29;94346.50;;;18.08;32.91
46379;BME280;32084;42.254;22.744;2023-04-02T14:52:59;94348.75;;;17.93;31.93
46379;BME280;32084;42.254;22.744;2023-04-02T14:55:31;94337.47;;;17.96;32.85
46379;BME280;32084;42.254;22.744;2023-04-02T14:58:00;94347.53;;;18.07;33.06
46379;BME280;32084;42.254;22.744;2023-04-02T15:03:16;94344.44;;;18.22;31.96
46379;BME280;32084;42.254;22.744;2023-04-02T15:05:46;94347.31;;;18.09;32.06
46379;BME280;32084;42.254;22.744;2023-04-02T15:11:00;94345.34;;;17.79;32.32
46379;BME280;32084;42.254;22.744;2023-04-02T15:13:32;94348.88;;;17.61;32.32
46379;BME280;32084;42.254;22.744;2023-04-02T15:16:09;94343.31;;;17.56;33.26
46379;BME280;32084;42.254;22.744;2023-04-02T15:18:36;94350.91;;;17.47;33.19
46379;BME280;32084;42.254;22.744;2023-04-02T15:29:02;94334.94;;;16.95;36.01
46379;BME280;32084;42.254;22.744;2023-04-02T15:31:35;94334.41;;;16.87;36.16
46379;BME280;32084;42.254;22.744;2023-04-02T15:36:36;94331.47;;;16.88;36.72
46379;BME280;32084;42.254;22.744;2023-04-02T15:41:40;94335.41;;;16.92;36.98
46379;BME280;32084;42.254;22.744;2023-04-02T15:44:12;94335.53;;;16.97;37.11
46379;BME280;32084;42.254;22.744;2023-04-02T15:49:49;94330.88;;;17.30;37.74
46379;BME280;32084;42.254;22.744;2023-04-02T16:13:48;94345.53;;;17.41;34.90
46379;BME280;32084;42.254;22.744;2023-04-02T16:15:50;94344.84;;;17.70;34.66
46379;BME280;32084;42.254;22.744;2023-04-02T16:18:53;94349.03;;;17.66;34.58
46379;BME280;32084;42.254;22.744;2023-04-02T16:21:11;94358.38;;;17.45;34.29
46379;BME280;32084;42.254;22.744;2023-04-02T16:23:40;94363.09;;;17.31;34.57
46379;BME280;32084;42.254;22.744;2023-04-02T16:39:07;94340.38;;;16.25;41.98
46379;BME280;32084;42.254;22.744;2023-04-02T16:46:52;94335.44;;;15.64;42.82
46379;BME280;32084;42.254;22.744;2023-04-02T16:59:50;94327.09;;;14.80;44.75
46379;BME280;32084;42.254;22.744;2023-04-02T17:07:25;94333.59;;;14.17;46.01
46379;BME280;32084;42.254;22.744;2023-04-02T17:09:54;94332.75;;;14.10;45.95
46379;BME280;32084;42.254;22.744;2023-04-02T17:14:58;94327.44;;;13.69;46.73
46379;BME280;32084;42.254;22.744;2023-04-02T17:17:25;94340.44;;;13.65;47.02
46379;BME280;32084;42.254;22.744;2023-04-02T17:19:53;94338.56;;;13.65;47.31
46379;BME280;32084;42.254;22.744;2023-04-02T17:22:21;94342.75;;;13.75;46.93
46379;BME280;32084;42.254;22.744;2023-04-02T17:24:57;94340.28;;;13.80;46.46
46379;BME280;32084;42.254;22.744;2023-04-02T17:29:51;94350.41;;;13.36;46.49